Time;durP1;ratioP1;P1;durP2;ratioP2;P2;SDS_P1;SDS_P2;PMS_P1;PMS_P2;Temp;Humidity;BMP_temperature;BMP_pressure;BME280_temperature;BME280_humidity;BME280_pressure;Samples;Min_cycle;Max_cycle;Signal;HPM_P1;HPM_P2
2022/01/13 00:00:54;;;;;;;10.20;5.17;;;;;;;-3.34;60.57;98451.63;5047310;28;20202;-85
2022/01/13 00:03:22;;;;;;;9.00;5.20;;;;;;;-3.30;61.07;98475.38;5048293;28;20280;-86
2022/01/13 00:05:50;;;;;;;8.20;5.47;;;;;;;-3.56;61.08;98453.44;5046591;28;20223;-84
2022/01/13 00:08:20;;;;;;;9.80;5.73;;;;;;;-3.46;61.89;98488.34;5048606;28;20240;-84
2022/01/13 00:11:01;;;;;;;7.57;5.40;;;;;;;-3.33;61.34;98531.84;5048022;28;20198;-83
2022/01/13 00:14:10;;;;;;;9.47;5.10;;;;;;;-3.37;61.65;98532.56;5061677;28;20193;-85
2022/01/13 00:22:00;;;;;;;7.57;4.30;;;;;;;-3.64;59.99;98498.75;5046692;28;20195;-82
2022/01/13 00:24:27;;;;;;;7.33;3.80;;;;;;;-3.62;60.17;98486.16;5048086;28;20186;-87
2022/01/13 00:26:55;;;;;;;7.73;3.60;;;;;;;-3.24;59.64;98530.41;5048022;28;20193;-84
2022/01/13 00:29:30;;;;;;;6.37;4.27;;;;;;;-3.16;58.81;98541.66;5046120;28;20193;-83
2022/01/13 00:32:00;;;;;;;6.57;3.80;;;;;;;-3.37;59.27;98507.25;5050793;28;20189;-85
2022/01/13 00:34:28;;;;;;;6.80;3.83;;;;;;;-3.41;59.31;98520.63;5048604;28;20222;-84
2022/01/13 00:36:56;;;;;;;6.97;3.70;;;;;;;-3.58;60.68;98509.09;5046671;28;20195;-86
2022/01/13 00:39:23;;;;;;;9.80;4.87;;;;;;;-4.14;60.68;98427.91;5050190;28;20194;-85
2022/01/13 00:41:51;;;;;;;7.73;4.00;;;;;;;-3.41;61.11;98556.06;5062552;28;20213;-85
2022/01/13 00:44:21;;;;;;;6.83;4.33;;;;;;;-3.68;60.42;98494.41;5048241;28;20576;-84
2022/01/13 00:46:56;;;;;;;7.00;3.97;;;;;;;-3.21;60.08;98558.41;5046407;28;20695;-84
2022/01/13 00:49:24;;;;;;;6.00;3.70;;;;;;;-3.15;60.26;98554.34;5047184;28;20278;-85
2022/01/13 00:51:51;;;;;;;8.20;4.40;;;;;;;-3.28;59.73;98520.19;5048235;28;20194;-84
2022/01/13 00:54:18;;;;;;;4.83;3.27;;;;;;;-3.40;59.77;98507.13;5047038;28;20260;-88
2022/01/13 00:56:45;;;;;;;6.47;3.83;;;;;;;-3.22;59.52;98534.72;5053434;28;20682;-87
2022/01/13 00:59:15;;;;;;;5.57;3.53;;;;;;;-3.49;59.13;98479.00;5067576;28;20189;-85
2022/01/13 01:01:49;;;;;;;7.20;4.73;;;;;;;-3.07;59.09;98559.69;5066630;28;20696;-85
2022/01/13 01:04:18;;;;;;;8.73;4.00;;;;;;;-3.15;58.68;98544.22;5066550;28;20670;-86
2022/01/13 01:06:46;;;;;;;6.70;4.30;;;;;;;-3.00;58.39;98556.50;5049891;28;20706;-85
2022/01/13 01:09:17;;;;;;;4.97;3.60;;;;;;;-3.12;58.94;98533.34;5068375;28;20209;-87
2022/01/13 01:11:47;;;;;;;6.03;3.33;;;;;;;-3.44;58.72;98474.94;5064047;28;20703;-88
2022/01/13 01:14:16;;;;;;;7.03;3.67;;;;;;;-3.43;59.08;98484.28;5071978;28;20325;-87
2022/01/13 01:16:44;;;;;;;5.07;3.63;;;;;;;-3.35;59.84;98497.16;5066632;28;20251;-86
2022/01/13 01:19:12;;;;;;;4.80;3.50;;;;;;;-3.10;59.52;98544.38;5066143;28;20221;-90
2022/01/13 01:24:27;;;;;;;7.47;4.10;;;;;;;-2.87;59.33;98568.75;5067166;28;20292;-88
2022/01/13 01:27:01;;;;;;;5.73;3.80;;;;;;;-2.92;59.11;98565.22;5064728;28;20272;-84
2022/01/13 01:29:54;;;;;;;6.93;4.40;;;;;;;-2.85;59.74;98554.47;5046985;28;20186;-85
2022/01/13 01:32:44;;;;;;;8.73;4.33;;;;;;;-3.44;59.50;98466.47;5035021;28;20198;-85
2022/01/13 01:35:37;;;;;;;7.93;4.43;;;;;;;-3.41;58.91;98491.91;5048429;28;20601;-84
2022/01/13 01:38:11;;;;;;;10.23;4.50;;;;;;;-3.05;59.41;98568.19;5032866;28;20591;-84
2022/01/13 01:40:40;;;;;;;6.40;4.63;;;;;;;-3.94;59.85;98411.75;5047135;28;20207;-84
2022/01/13 01:43:10;;;;;;;7.70;4.83;;;;;;;-3.06;60.50;98571.53;5061800;28;20208;-84
2022/01/13 01:45:43;;;;;;;7.13;4.50;;;;;;;-3.34;60.00;98525.06;5046496;28;20188;-86
2022/01/13 01:48:11;;;;;;;7.90;4.47;;;;;;;-3.29;59.89;98525.19;5046830;28;20269;-93
2022/01/13 01:50:39;;;;;;;7.47;4.23;;;;;;;-3.07;60.16;98559.69;5046273;28;20201;-85
2022/01/13 01:53:06;;;;;;;5.23;3.80;;;;;;;-3.48;60.24;98495.91;5048744;28;20193;-84
2022/01/13 01:55:35;;;;;;;5.97;4.03;;;;;;;-3.04;59.70;98565.69;5081718;28;20226;-84
2022/01/13 01:58:03;;;;;;;7.23;3.00;;;;;;;-2.92;58.14;98550.88;5064827;28;20280;-84
2022/01/13 02:00:31;;;;;;;4.70;3.20;;;;;;;-3.26;57.75;98461.13;5031802;28;20783;-84
2022/01/13 02:02:59;;;;;;;4.37;2.80;;;;;;;-2.86;57.20;98527.38;5081594;28;20757;-88
2022/01/13 02:05:26;;;;;;;3.10;2.80;;;;;;;-2.80;57.03;98525.03;5049553;28;20188;-86
2022/01/13 02:07:53;;;;;;;6.67;4.03;;;;;;;-3.25;56.38;98461.19;5049953;28;20789;-84
2022/01/13 02:10:21;;;;;;;4.20;3.47;;;;;;;-2.55;56.83;98575.66;5031979;28;20576;-85
2022/01/13 02:12:52;;;;;;;6.77;3.43;;;;;;;-2.63;56.91;98580.50;5049129;28;20202;-85
2022/01/13 02:17:51;;;;;;;5.40;3.70;;;;;;;-2.74;57.01;98526.06;5049866;28;20278;-86
2022/01/13 02:20:19;;;;;;;8.67;3.60;;;;;;;-2.79;56.94;98531.84;5064700;28;20264;-85
2022/01/13 02:22:47;;;;;;;6.77;3.90;;;;;;;-3.11;56.09;98467.50;5049831;28;20309;-87
2022/01/13 02:25:16;;;;;;;7.57;4.13;;;;;;;-3.24;57.16;98469.63;5048118;28;20192;-85
2022/01/13 02:27:44;;;;;;;7.97;4.60;;;;;;;-2.59;56.32;98581.44;5048484;28;20229;-84
2022/01/13 02:30:12;;;;;;;7.20;4.20;;;;;;;-2.64;56.59;98565.25;5047959;28;20212;-86
2022/01/13 02:32:39;;;;;;;7.07;3.50;;;;;;;-2.74;56.52;98560.72;5049587;28;20187;-85
2022/01/13 02:35:07;;;;;;;5.63;3.87;;;;;;;-2.73;56.71;98552.28;5049014;28;20614;-85
2022/01/13 02:37:34;;;;;;;7.63;4.63;;;;;;;-3.17;57.10;98476.63;5047763;28;20283;-84
2022/01/13 02:40:03;;;;;;;6.70;4.33;;;;;;;-3.22;56.33;98468.00;5049387;28;20187;-85
2022/01/13 02:42:30;;;;;;;6.97;3.90;;;;;;;-2.89;56.62;98499.44;5048785;28;20579;-84
2022/01/13 02:45:05;;;;;;;5.80;3.47;;;;;;;-2.52;56.70;98578.28;5048348;28;20191;-84
2022/01/13 02:47:47;;;;;;;5.80;3.20;;;;;;;-2.68;56.95;98540.63;5049107;28;20213;-84
2022/01/13 02:50:14;;;;;;;5.97;4.07;;;;;;;-2.44;56.87;98561.63;5031406;28;20203;-85
2022/01/13 02:52:42;;;;;;;5.33;3.40;;;;;;;-2.78;56.62;98506.53;5049967;28;20282;-83
2022/01/13 02:55:09;;;;;;;4.50;2.83;;;;;;;-2.56;56.68;98530.84;5047702;28;20229;-83
2022/01/13 02:57:39;;;;;;;4.93;3.07;;;;;;;-2.36;57.30;98562.69;5050457;28;20217;-87
2022/01/13 03:00:09;;;;;;;5.90;3.17;;;;;;;-2.25;56.86;98576.56;5048732;28;20188;-84
2022/01/13 03:02:36;;;;;;;4.13;2.83;;;;;;;-2.29;56.52;98576.44;5047204;28;20262;-83
2022/01/13 03:05:11;;;;;;;5.17;3.30;;;;;;;-2.77;56.70;98487.13;5047016;28;20200;-84
2022/01/13 03:07:38;;;;;;;5.37;3.00;;;;;;;-2.39;56.87;98556.69;5048795;28;20199;-87
2022/01/13 03:10:07;;;;;;;3.80;2.63;;;;;;;-2.46;57.29;98540.44;5049497;28;20188;-85
2022/01/13 03:12:38;;;;;;;4.80;2.97;;;;;;;-3.05;56.78;98441.53;5048994;28;20196;-85
2022/01/13 03:15:12;;;;;;;5.33;2.80;;;;;;;-2.58;56.95;98525.75;5049025;28;20514;-84
2022/01/13 03:17:39;;;;;;;3.67;3.00;;;;;;;-2.60;56.71;98529.03;5031066;28;20699;-85
2022/01/13 03:20:07;;;;;;;5.87;3.30;;;;;;;-2.99;57.08;98456.91;5048182;28;20240;-90
2022/01/13 03:22:34;;;;;;;5.40;3.43;;;;;;;-3.14;57.00;98438.72;5049454;28;20226;-84
2022/01/13 03:25:03;;;;;;;3.57;2.73;;;;;;;-2.56;57.38;98533.38;5051869;28;20184;-85
2022/01/13 03:27:37;;;;;;;4.77;3.27;;;;;;;-2.42;56.88;98554.06;5070224;28;20559;-83
2022/01/13 03:30:09;;;;;;;5.07;3.33;;;;;;;-2.40;56.69;98565.97;5070073;28;20201;-85
2022/01/13 03:33:03;;;;;;;3.67;2.40;;;;;;;-2.42;56.50;98567.59;5068915;28;20231;-84
2022/01/13 03:35:30;;;;;;;5.00;2.97;;;;;;;-3.15;56.85;98445.44;5051975;28;20322;-87
2022/01/13 03:37:58;;;;;;;3.10;2.60;;;;;;;-2.40;56.64;98573.56;5068928;28;20207;-87
2022/01/13 03:40:26;;;;;;;5.10;3.17;;;;;;;-2.52;56.83;98552.94;5068120;28;20196;-85
2022/01/13 03:42:54;;;;;;;4.97;3.70;;;;;;;-2.35;56.66;98586.41;5066879;28;20192;-86
2022/01/13 03:48:14;;;;;;;4.27;3.10;;;;;;;-2.38;57.26;98589.69;5067279;28;20277;-85
2022/01/13 03:50:43;;;;;;;5.03;3.30;;;;;;;-2.41;57.20;98589.59;5068360;28;20191;-86
2022/01/13 03:53:29;;;;;;;6.27;3.33;;;;;;;-2.39;57.34;98599.81;5042585;28;20584;-92
2022/01/13 03:56:08;;;;;;;3.13;2.20;;;;;;;-2.33;56.54;98607.59;5046944;28;20255;-89
2022/01/13 03:58:59;;;;;;;3.43;2.47;;;;;;;-2.30;56.48;98607.66;5062666;28;20207;-85
2022/01/13 04:01:59;;;;;;;4.07;2.70;;;;;;;-2.75;56.96;98523.50;5048816;28;20288;-84
2022/01/13 04:04:33;;;;;;;5.47;2.97;;;;;;;-2.33;57.04;98598.31;5048620;28;20573;-85
2022/01/13 04:07:04;;;;;;;5.33;2.90;;;;;;;-2.38;57.50;98588.81;5055907;28;20244;-85
2022/01/13 04:09:34;;;;;;;6.97;3.30;;;;;;;-2.47;57.77;98596.19;5068697;28;20194;-85
2022/01/13 04:12:07;;;;;;;4.57;2.73;;;;;;;-3.15;57.99;98485.13;5071131;28;20215;-85
2022/01/13 04:15:10;;;;;;;5.53;3.43;;;;;;;-2.51;58.36;98597.75;5050873;28;20230;-84
2022/01/13 04:17:39;;;;;;;5.70;3.87;;;;;;;-2.54;58.59;98605.28;5049424;28;20248;-85
2022/01/13 04:20:08;;;;;;;4.33;3.10;;;;;;;-2.47;59.61;98607.16;5057532;28;20235;-84
2022/01/13 04:22:35;;;;;;;5.43;3.50;;;;;;;-2.74;61.28;98584.38;5050449;28;20189;-83
2022/01/13 04:25:04;;;;;;;6.43;3.40;;;;;;;-3.09;62.44;98525.84;5050089;28;20199;-82
2022/01/13 04:27:35;;;;;;;6.80;3.70;;;;;;;-2.67;63.55;98623.44;5052340;28;20226;-83
2022/01/13 04:32:42;;;;;;;5.57;3.67;;;;;;;-2.92;65.17;98576.22;5048813;28;20198;-83
2022/01/13 04:35:10;;;;;;;6.07;3.40;;;;;;;-2.72;65.09;98607.25;5048111;28;20232;-84
2022/01/13 04:37:38;;;;;;;5.30;3.70;;;;;;;-2.71;65.41;98625.03;5030672;28;20199;-83
2022/01/13 04:40:09;;;;;;;7.23;3.60;;;;;;;-2.73;65.55;98625.81;5046708;28;20460;-85
2022/01/13 04:42:41;;;;;;;6.30;3.70;;;;;;;-3.03;65.84;98581.78;5047350;28;20190;-84
2022/01/13 04:45:09;;;;;;;5.73;3.33;;;;;;;-2.79;66.12;98621.41;5048454;28;20237;-86
2022/01/13 04:47:37;;;;;;;6.00;3.90;;;;;;;-2.82;66.54;98631.44;5047386;28;20281;-83
2022/01/13 04:50:05;;;;;;;5.37;3.90;;;;;;;-2.82;66.68;98625.50;5047429;28;20215;-84
2022/01/13 04:52:32;;;;;;;6.90;4.07;;;;;;;-3.01;66.73;98590.28;5045620;28;20279;-85
2022/01/13 04:55:08;;;;;;;6.17;3.90;;;;;;;-3.16;66.22;98549.25;5047529;28;20200;-84
2022/01/13 04:57:35;;;;;;;5.63;3.67;;;;;;;-2.72;65.74;98625.00;5045352;28;20362;-84
2022/01/13 05:00:09;;;;;;;8.63;4.27;;;;;;;-3.00;66.27;98576.78;5046776;28;20209;-85
2022/01/13 05:02:36;;;;;;;8.90;4.50;;;;;;;-2.97;66.49;98584.50;5054737;28;20248;-86
2022/01/13 05:05:04;;;;;;;7.50;4.23;;;;;;;-2.92;65.88;98583.81;5066982;28;20286;-84
2022/01/13 05:07:34;;;;;;;7.80;4.57;;;;;;;-2.77;66.19;98599.50;5065754;28;20185;-86
2022/01/13 05:10:06;;;;;;;6.13;4.03;;;;;;;-2.74;65.78;98616.50;5065458;28;20669;-90
2022/01/13 05:12:55;;;;;;;6.47;3.60;;;;;;;-3.45;65.49;98490.97;5065912;28;20195;-84
2022/01/13 05:15:26;;;;;;;7.53;3.80;;;;;;;-2.83;65.89;98606.91;5066963;28;20612;-85
2022/01/13 05:20:39;;;;;;;9.83;4.83;;;;;;;-3.22;65.25;98534.72;5067261;28;20220;-86
2022/01/13 05:23:08;;;;;;;13.50;6.60;;;;;;;-2.70;65.71;98615.78;5048995;28;20223;-92
2022/01/13 05:25:36;;;;;;;12.40;6.80;;;;;;;-2.74;66.23;98629.16;5050258;28;20816;-86
2022/01/13 05:28:04;;;;;;;14.50;6.87;;;;;;;-2.92;66.56;98598.16;5049752;28;20191;-87
2022/01/13 05:30:32;;;;;;;10.60;6.03;;;;;;;-2.78;67.02;98635.78;5049648;28;20305;-86
2022/01/13 05:32:59;;;;;;;9.17;5.67;;;;;;;-2.99;67.72;98602.19;5083364;28;20197;-85
2022/01/13 05:35:26;;;;;;;8.70;5.07;;;;;;;-3.04;68.47;98585.09;5049672;28;20299;-87
2022/01/13 05:37:53;;;;;;;10.40;5.60;;;;;;;-2.89;69.26;98641.34;5032555;28;20201;-86
2022/01/13 05:40:21;;;;;;;10.77;6.40;;;;;;;-4.03;69.52;98451.91;5033930;28;20206;-86
2022/01/13 05:42:49;;;;;;;11.27;6.60;;;;;;;-2.96;70.99;98647.88;5051156;28;20189;-86
2022/01/13 05:45:20;;;;;;;11.40;6.93;;;;;;;-3.08;71.77;98641.53;5048987;28;20186;-87
2022/01/13 05:47:49;;;;;;;15.37;6.67;;;;;;;-3.06;72.89;98652.59;5033223;28;20672;-86
2022/01/13 05:50:19;;;;;;;11.37;6.03;;;;;;;-3.28;71.72;98606.28;5083045;28;20235;-87
2022/01/13 05:52:47;;;;;;;14.97;6.90;;;;;;;-3.13;71.74;98635.47;5033241;28;20208;-85
2022/01/13 05:55:15;;;;;;;13.63;6.40;;;;;;;-3.04;70.70;98645.91;5082389;28;20239;-85
2022/01/13 05:57:46;;;;;;;11.60;6.20;;;;;;;-3.01;70.33;98658.69;5049631;28;20199;-85
2022/01/13 06:00:16;;;;;;;17.43;7.23;;;;;;;-4.17;70.04;98463.22;5050793;28;20214;-90
2022/01/13 06:02:46;;;;;;;15.17;7.17;;;;;;;-2.97;69.31;98642.78;5050724;28;20244;-86
2022/01/13 06:05:16;;;;;;;13.43;5.77;;;;;;;-3.16;69.56;98621.03;5065520;28;20202;-85
2022/01/13 06:07:44;;;;;;;15.90;7.07;;;;;;;-3.63;68.70;98543.53;5082184;28;20285;-87
2022/01/13 06:10:18;;;;;;;9.00;5.73;;;;;;;-2.88;68.08;98669.25;5032506;28;20262;-86
2022/01/13 06:12:47;;;;;;;13.37;7.07;;;;;;;-3.50;67.51;98570.94;5049817;28;20690;-89
2022/01/13 06:15:18;;;;;;;12.37;5.77;;;;;;;-3.13;67.79;98632.94;5050095;28;20216;-87
2022/01/13 06:17:48;;;;;;;11.50;5.70;;;;;;;-3.53;67.31;98573.38;5050742;28;20187;-87
2022/01/13 06:20:16;;;;;;;10.87;5.80;;;;;;;-3.16;67.88;98637.91;5032859;28;20269;-86
2022/01/13 06:22:44;;;;;;;14.10;6.83;;;;;;;-3.21;68.40;98619.19;5049508;28;20217;-86
2022/01/13 06:25:14;;;;;;;10.53;6.27;;;;;;;-3.49;67.64;98561.69;5050018;28;20303;-90
2022/01/13 06:27:41;;;;;;;7.90;5.20;;;;;;;-3.60;66.88;98546.13;5032928;28;20204;-87
2022/01/13 06:30:30;;;;;;;9.83;5.17;;;;;;;-2.98;66.10;98631.75;5050100;28;20193;-86
2022/01/13 06:32:58;;;;;;;10.27;6.53;;;;;;;-2.79;65.81;98648.41;5048755;28;20339;-88
2022/01/13 06:35:26;;;;;;;11.93;5.77;;;;;;;-2.89;65.78;98642.22;5050349;28;20274;-87
2022/01/13 06:37:53;;;;;;;12.70;6.77;;;;;;;-2.69;65.64;98666.50;5048362;28;20187;-86
2022/01/13 06:40:20;;;;;;;11.50;6.80;;;;;;;-3.14;65.54;98590.69;5049997;28;20213;-87
2022/01/13 06:42:48;;;;;;;16.03;6.63;;;;;;;-2.75;65.93;98657.84;5049805;28;20197;-88
2022/01/13 06:45:15;;;;;;;15.57;5.67;;;;;;;-2.66;64.31;98653.06;5050983;28;20195;-88
2022/01/13 06:47:42;;;;;;;10.30;5.57;;;;;;;-3.05;63.19;98571.56;5083166;28;20195;-89
2022/01/13 06:50:11;;;;;;;10.07;4.90;;;;;;;-2.43;63.13;98663.94;5050712;28;20579;-87
2022/01/13 06:52:39;;;;;;;9.77;5.77;;;;;;;-2.38;62.31;98670.00;5049706;28;20202;-92
2022/01/13 06:55:06;;;;;;;8.63;5.33;;;;;;;-2.52;62.00;98644.22;5049626;28;20207;-87
2022/01/13 06:57:34;;;;;;;9.80;4.70;;;;;;;-3.04;61.99;98564.84;5083101;28;20220;-89
2022/01/13 07:00:03;;;;;;;9.00;5.83;;;;;;;-2.47;62.35;98642.66;5052594;28;20189;-87
2022/01/13 07:02:31;;;;;;;8.33;4.43;;;;;;;-2.99;63.14;98554.06;5049780;28;20216;-86
2022/01/13 07:04:59;;;;;;;7.83;5.07;;;;;;;-2.57;63.06;98611.09;5065881;28;20210;-86
2022/01/13 07:07:32;;;;;;;11.53;5.90;;;;;;;-2.45;62.06;98625.81;5050075;28;20749;-87
2022/01/13 07:10:06;;;;;;;11.10;5.30;;;;;;;-2.10;61.90;98696.22;5035773;28;20186;-86
2022/01/13 07:12:34;;;;;;;9.93;5.27;;;;;;;-2.55;61.79;98601.88;5048816;28;20216;-86
2022/01/13 07:15:01;;;;;;;10.70;5.67;;;;;;;-1.99;61.72;98684.75;5048095;28;20198;-86
2022/01/13 07:17:30;;;;;;;14.50;6.37;;;;;;;-2.20;61.42;98624.88;5031912;28;20250;-87
2022/01/13 07:19:58;;;;;;;11.57;6.70;;;;;;;-2.30;60.85;98602.59;5030864;28;20244;-86
2022/01/13 07:22:26;;;;;;;9.47;5.97;;;;;;;-1.96;61.64;98661.97;5031152;28;20447;-88
2022/01/13 07:24:55;;;;;;;14.87;6.87;;;;;;;-1.79;61.76;98686.16;5050710;28;20201;-89
2022/01/13 07:28:05;;;;;;;15.33;7.20;;;;;;;-1.60;61.11;98709.53;5050114;28;20289;-86
2022/01/13 07:31:27;;;;;;;13.40;6.90;;;;;;;-1.78;60.35;98709.88;5062942;28;20712;-86
2022/01/13 07:34:48;;;;;;;15.57;7.63;;;;;;;-1.74;60.91;98714.22;5061289;28;20200;-85
2022/01/13 07:38:09;;;;;;;13.80;7.47;;;;;;;-1.60;60.29;98710.41;5047182;28;20240;-86
2022/01/13 07:41:30;;;;;;;9.63;5.93;;;;;;;-1.60;59.57;98710.41;5047191;28;20711;-87
2022/01/13 07:44:55;;;;;;;18.40;8.00;;;;;;;-1.52;59.46;98724.19;5062419;28;20187;-87
2022/01/13 07:48:16;;;;;;;10.63;6.03;;;;;;;-1.59;59.78;98726.50;5062097;28;20224;-90
2022/01/13 07:51:36;;;;;;;12.10;6.37;;;;;;;-1.63;59.28;98700.19;5045090;28;20199;-86
2022/01/13 07:54:57;;;;;;;11.57;6.20;;;;;;;-1.45;57.74;98735.38;5075662;28;20275;-86
2022/01/13 07:58:19;;;;;;;12.67;6.47;;;;;;;-1.47;58.60;98730.25;5048543;28;20286;-86
2022/01/13 08:01:40;;;;;;;13.00;6.37;;;;;;;-1.41;58.97;98732.09;5046638;28;20198;-87
2022/01/13 08:05:01;;;;;;;14.77;7.20;;;;;;;-1.39;59.16;98725.38;5031487;28;20320;-86
2022/01/13 08:08:23;;;;;;;12.50;6.93;;;;;;;-1.43;59.88;98728.66;5047117;28;20198;-84
2022/01/13 08:11:45;;;;;;;16.67;7.23;;;;;;;-1.46;58.47;98738.75;5047180;28;20187;-89
2022/01/13 08:15:12;;;;;;;11.27;6.23;;;;;;;-1.41;58.69;98737.19;5029866;28;20202;-86
2022/01/13 08:22:12;;;;;;;10.70;5.43;;;;;;;-1.15;56.28;98737.09;5047981;28;20221;-88
2022/01/13 08:25:33;;;;;;;9.20;5.40;;;;;;;-1.33;56.62;98744.19;5077687;28;20291;-87
2022/01/13 08:28:54;;;;;;;12.23;5.50;;;;;;;-1.15;56.33;98737.09;5048695;28;20280;-86
2022/01/13 08:32:15;;;;;;;10.90;5.53;;;;;;;-1.21;56.80;98739.47;5050563;28;20287;-90
2022/01/13 08:35:36;;;;;;;9.50;6.50;;;;;;;-1.10;56.17;98734.66;5076113;28;20599;-88
2022/01/13 08:38:57;;;;;;;13.00;7.67;;;;;;;-1.08;55.63;98720.31;5045869;28;20289;-86
2022/01/13 08:42:18;;;;;;;11.43;6.30;;;;;;;-1.29;56.36;98734.97;5060452;28;20669;-89
2022/01/13 08:45:38;;;;;;;13.60;7.33;;;;;;;-1.32;57.07;98742.53;5046715;28;20204;-86
2022/01/13 08:48:59;;;;;;;15.23;6.80;;;;;;;-1.00;56.69;98737.50;5048862;28;20186;-86
2022/01/13 08:52:24;;;;;;;8.87;5.47;;;;;;;-0.95;56.81;98751.19;5030491;28;20579;-85
2022/01/13 08:55:46;;;;;;;10.20;6.27;;;;;;;-0.93;55.76;98730.91;5048467;28;20253;-86
2022/01/13 08:59:10;;;;;;;8.23;5.40;;;;;;;-0.92;56.40;98736.00;5062189;28;20197;-87
2022/01/13 09:02:33;;;;;;;11.03;6.43;;;;;;;-1.20;56.90;98723.41;5068349;28;20197;-86
2022/01/13 09:05:54;;;;;;;12.23;6.47;;;;;;;-1.26;57.24;98742.69;5064940;28;20265;-86
2022/01/13 09:09:15;;;;;;;13.00;6.37;;;;;;;-1.34;56.92;98732.31;5040086;28;20227;-86
2022/01/13 09:12:37;;;;;;;14.10;6.47;;;;;;;-1.38;58.90;98727.13;5072259;28;20277;-87
2022/01/13 09:15:59;;;;;;;9.80;5.80;;;;;;;-1.23;57.89;98737.69;5076660;28;20197;-87
2022/01/13 09:19:23;;;;;;;11.80;6.77;;;;;;;-1.27;57.72;98728.25;5096296;28;20259;-87
2022/01/13 09:22:44;;;;;;;10.37;6.23;;;;;;;-1.27;58.32;98718.09;5061779;28;20190;-85
2022/01/13 09:26:06;;;;;;;10.97;6.37;;;;;;;-1.06;58.31;98721.22;5051720;28;20225;-87
2022/01/13 09:29:28;;;;;;;11.60;6.70;;;;;;;-1.18;58.23;98726.84;5051570;28;20190;-86
2022/01/13 09:32:51;;;;;;;14.40;7.10;;;;;;;-0.96;57.50;98725.72;5034361;28;20186;-87
2022/01/13 09:36:11;;;;;;;11.90;7.00;;;;;;;-1.01;58.34;98728.13;5052696;28;20231;-87
2022/01/13 09:39:33;;;;;;;14.93;7.33;;;;;;;-0.99;58.77;98718.88;5077720;28;20216;-86
2022/01/13 09:42:54;;;;;;;16.57;6.93;;;;;;;-1.12;58.67;98719.38;5034553;28;20188;-85
2022/01/13 09:46:15;;;;;;;14.43;6.77;;;;;;;-1.11;58.62;98684.63;5050683;28;20691;-86
2022/01/13 09:49:36;;;;;;;13.50;6.83;;;;;;;-0.79;58.08;98696.50;5050494;28;20190;-87
2022/01/13 09:52:59;;;;;;;10.20;6.47;;;;;;;-0.80;58.25;98692.22;5063545;28;20714;-88
2022/01/13 09:56:20;;;;;;;12.00;6.90;;;;;;;-1.00;58.38;98651.06;5050063;28;20216;-86
2022/01/13 09:59:46;;;;;;;13.00;7.13;;;;;;;-0.87;59.01;98687.84;5046894;28;20210;-87
2022/01/13 10:03:10;;;;;;;11.93;6.90;;;;;;;-1.23;59.14;98646.22;5050547;28;20265;-86
2022/01/13 10:06:33;;;;;;;12.67;6.80;;;;;;;-1.03;57.89;98683.19;5077770;28;20190;-86
2022/01/13 10:09:54;;;;;;;13.97;7.03;;;;;;;-0.76;57.63;98671.13;5048952;28;20235;-87
2022/01/13 10:13:24;;;;;;;13.90;7.83;;;;;;;-0.76;57.66;98666.06;5034167;28;20217;-86
2022/01/13 10:16:46;;;;;;;13.90;7.43;;;;;;;-0.78;57.90;98660.06;5063508;28;20234;-92
2022/01/13 10:20:06;;;;;;;10.47;6.80;;;;;;;-0.82;57.22;98650.66;5079390;28;20195;-86
2022/01/13 10:23:27;;;;;;;14.10;6.67;;;;;;;-0.68;57.39;98639.13;5064471;28;20213;-93
2022/01/13 10:26:49;;;;;;;13.67;6.73;;;;;;;-0.68;56.92;98634.03;5068261;28;20201;-87
2022/01/13 10:30:02;;;;;;;10.47;6.30;;;;;;;-0.62;56.55;98639.28;5055121;28;20194;-91
2022/01/13 10:33:23;;;;;;;10.77;6.30;;;;;;;-0.43;57.16;98625.28;5084961;28;20226;-92
2022/01/13 10:36:47;;;;;;;11.37;6.03;;;;;;;-0.24;55.43;98628.28;5051680;28;20232;-91
2022/01/13 10:40:38;;;;;;;13.33;6.87;;;;;;;-0.24;54.92;98622.31;5050216;28;20687;-91
2022/01/13 10:44:02;;;;;;;12.57;6.20;;;;;;;-0.44;54.89;98591.38;5053011;28;20250;-90
2022/01/13 10:47:18;;;;;;;9.60;6.10;;;;;;;-0.25;54.05;98605.34;5080649;28;20343;-88
2022/01/13 10:50:45;;;;;;;11.37;6.23;;;;;;;0.10;54.63;98604.41;5052869;28;20657;-94
2022/01/13 10:54:09;;;;;;;8.60;6.07;;;;;;;-0.02;52.85;98599.03;5050777;28;20186;-92
2022/01/13 10:57:35;;;;;;;9.00;5.33;;;;;;;0.10;53.16;98573.84;5084394;28;20366;-89
2022/01/13 11:00:39;;;;;;;11.10;6.23;;;;;;;0.38;51.11;98570.09;5053730;28;20200;-92
2022/01/13 11:03:59;;;;;;;13.53;7.03;;;;;;;0.40;51.47;98563.34;5054023;28;20198;-92
2022/01/13 11:07:37;;;;;;;11.70;6.43;;;;;;;0.66;51.30;98554.50;5052701;28;20190;-88
2022/01/13 11:10:58;;;;;;;11.53;5.90;;;;;;;0.81;49.53;98552.19;5033577;28;20194;-88
2022/01/13 11:14:25;;;;;;;10.70;5.03;;;;;;;0.87;48.12;98551.44;5080992;28;20202;-87
2022/01/13 11:17:48;;;;;;;10.33;5.97;;;;;;;0.67;48.75;98533.25;5050532;28;20758;-88
2022/01/13 11:21:08;;;;;;;13.77;7.17;;;;;;;1.00;46.83;98561.88;5050466;28;20588;-92
2022/01/13 11:24:29;;;;;;;9.87;6.20;;;;;;;1.10;48.23;98562.84;5047131;28;20190;-89
2022/01/13 11:27:50;;;;;;;17.00;7.67;;;;;;;1.21;47.58;98561.34;5047364;28;20220;-89
2022/01/13 11:31:11;;;;;;;11.80;7.30;;;;;;;1.31;47.54;98553.84;5047710;28;20699;-86
2022/01/13 11:34:34;;;;;;;12.23;6.43;;;;;;;1.37;46.64;98543.72;5078300;28;20185;-85
2022/01/13 11:37:56;;;;;;;8.57;5.87;;;;;;;1.61;45.90;98541.50;5049841;28;20224;-86
2022/01/13 11:41:19;;;;;;;12.13;6.53;;;;;;;1.77;45.92;98537.47;5048290;28;20194;-86
2022/01/13 11:44:55;;;;;;;9.93;5.83;;;;;;;1.87;45.00;98502.69;5048075;28;20549;-88
2022/01/13 11:48:12;;;;;;;11.37;6.10;;;;;;;1.90;44.03;98533.34;5049119;28;20204;-87
2022/01/13 11:51:33;;;;;;;11.80;7.30;;;;;;;1.86;43.43;98521.38;5031472;28;20311;-86
2022/01/13 11:55:06;;;;;;;9.80;6.13;;;;;;;2.03;43.79;98525.84;5049130;28;20217;-86
2022/01/13 11:58:33;;;;;;;8.83;5.33;;;;;;;1.98;44.17;98519.00;5061439;28;20668;-89
2022/01/13 12:02:03;;;;;;;8.73;4.93;;;;;;;2.11;43.85;98528.50;5032969;28;20193;-86
2022/01/13 12:05:43;;;;;;;12.47;5.87;;;;;;;2.16;43.04;98524.31;5076186;28;20182;-86
2022/01/13 12:09:13;;;;;;;16.07;8.40;;;;;;;2.01;44.92;98508.78;5076563;28;20213;-87
2022/01/13 12:12:34;;;;;;;11.87;7.03;;;;;;;2.05;45.37;98497.75;5061401;28;20273;-88
2022/01/13 12:15:58;;;;;;;12.57;6.83;;;;;;;1.85;45.60;98509.47;5080289;28;20212;-87
2022/01/13 12:19:40;;;;;;;13.17;6.23;;;;;;;1.86;47.45;98496.69;5049040;28;20912;-86
2022/01/13 12:22:29;;;;;;;11.60;6.93;;;;;;;1.95;47.94;98499.38;5031896;28;20692;-87
2022/01/13 12:25:50;;;;;;;13.43;7.50;;;;;;;1.78;48.69;98512.75;5030277;28;20190;-86
2022/01/13 12:29:09;;;;;;;12.17;6.80;;;;;;;1.62;50.21;98512.59;5054944;28;20194;-89
2022/01/13 12:32:25;;;;;;;12.53;7.33;;;;;;;1.57;49.23;98509.13;5016755;28;20194;-85
2022/01/13 12:35:37;;;;;;;15.03;7.40;;;;;;;1.52;48.92;98485.25;5048624;28;20225;-88
2022/01/13 12:38:57;;;;;;;17.43;8.60;;;;;;;1.51;48.81;98486.06;5048137;28;20193;-91
2022/01/13 12:42:19;;;;;;;13.20;6.37;;;;;;;1.43;48.70;98500.44;5053255;28;20210;-90
2022/01/13 12:45:46;;;;;;;8.83;6.10;;;;;;;1.28;48.58;98512.09;5051138;28;20285;-90
2022/01/13 12:49:07;;;;;;;10.90;5.70;;;;;;;1.19;48.07;98499.22;5052930;28;20325;-95
2022/01/13 12:52:28;;;;;;;10.30;5.50;;;;;;;1.20;46.46;98506.91;5052448;28;20757;-93
2022/01/13 12:55:49;;;;;;;10.53;5.97;;;;;;;1.17;47.61;98495.81;5049778;28;20193;-86
2022/01/13 12:59:11;;;;;;;10.00;6.37;;;;;;;1.30;47.78;98495.16;5048579;28;20196;-87
2022/01/13 13:02:32;;;;;;;8.93;5.77;;;;;;;1.14;47.19;98471.09;5032374;28;20193;-87
2022/01/13 13:06:14;;;;;;;14.33;6.57;;;;;;;1.33;48.19;98516.44;5062391;28;20196;-87
2022/01/13 13:09:45;;;;;;;11.47;6.17;;;;;;;1.20;48.58;98517.09;5048269;28;20186;-87
2022/01/13 13:13:13;;;;;;;10.97;6.30;;;;;;;1.18;49.10;98510.25;5077568;28;20220;-88
2022/01/13 13:16:33;;;;;;;11.27;6.00;;;;;;;1.22;47.07;98514.56;5046708;28;20263;-88
2022/01/13 13:19:59;;;;;;;12.77;6.63;;;;;;;1.30;46.85;98518.94;5050136;28;20194;-87
2022/01/13 13:23:23;;;;;;;9.90;5.90;;;;;;;1.10;46.51;98515.25;5047083;28;20211;-86
2022/01/13 13:26:44;;;;;;;15.23;5.73;;;;;;;1.09;47.74;98516.09;5077260;28;20197;-88
2022/01/13 13:30:05;;;;;;;9.70;5.73;;;;;;;1.09;46.90;98518.66;5029847;28;20194;-86
2022/01/13 13:33:29;;;;;;;12.23;5.63;;;;;;;1.16;47.29;98514.47;5048201;28;20207;-90
2022/01/13 13:36:52;;;;;;;11.20;5.33;;;;;;;1.08;45.76;98516.94;5032337;28;20233;-84
2022/01/13 13:40:12;;;;;;;8.83;4.87;;;;;;;0.97;47.51;98502.31;5062138;28;20252;-91
2022/01/13 13:43:43;;;;;;;8.87;5.97;;;;;;;1.05;46.95;98510.94;5052137;28;20197;-86
2022/01/13 13:47:06;;;;;;;7.67;5.27;;;;;;;1.14;47.11;98518.69;5065584;28;20197;-88